»·PEaware :: SWA1763 KSLC-KDEN

SWA1763 :: KSLC-KDEN

FLIGHT INFORMATION

Flight Status: Arrived
Operator:
Southwest Airlines
More flights by this operator :: More flights under this callsign
Pilot: Anonymous 17611 (17611)
Aircraft: BOEING 737-300
(B733)
More flights by this aircraft type
Origin: KSLC Salt Lake City Intl
United States
Destination: KDEN Denver Intl
United States
More flights between these airports :: More routes between these airports
Route: +NSIGN5 CHE FRNCH3
File this flight plan on PilotEdge
Remarks: PBN / A1B3B4B5D3D4 DOF / 180502 REG / N372SB EET / KZDV0023 OPR / SWA PER / C RMK / TCAS SIMBRIEF
Altitude:
(Current/Filed)
32,000ft
Speed:
(Current/Filed)
423kts
Departed: 01-May-18 05:08 PM
Arrived: 01-May-18 06:13 PM
Distance/Time
Traveled:
339nm/1:04
Distance/Time
To Go:
Arrived

Flight Plot

Page will automatically refresh every two minutes.

Flight plan parsing failed; only flown route is shown


Map Options




Map Legend


Flown Route
Filed Route
Departure Airport
Arrival Airport
Navaid (VOR, NDB)
Fix

Horizontal Profiles

Position Reports

Time Latitude Longitude Heading Altitude Ground
Speed
01-May-18 16:33 40.786341 -111.987060 29 4223ft 0kts
01-May-18 16:34 40.786341 -111.987060 29 4223ft 0kts
01-May-18 16:35 40.786341 -111.987060 29 4223ft 0kts
01-May-18 16:36 40.786341 -111.987060 29 4223ft 0kts
01-May-18 16:37 40.786341 -111.987060 29 4223ft 0kts
01-May-18 16:38 40.786341 -111.987060 29 4223ft 0kts
01-May-18 16:39 40.786341 -111.987060 29 4223ft 0kts
01-May-18 16:40 40.786341 -111.987060 29 4223ft 0kts
01-May-18 16:41 40.786341 -111.987060 29 4223ft 0kts
01-May-18 16:42 40.786341 -111.987060 29 4223ft 0kts
01-May-18 16:43 40.786341 -111.987060 29 4223ft 0kts
01-May-18 16:44 40.786341 -111.987060 29 4223ft 0kts
01-May-18 16:45 40.786341 -111.987060 29 4223ft 0kts
01-May-18 16:46 40.786341 -111.987060 29 4223ft 0kts
01-May-18 16:47 40.786341 -111.987060 29 4223ft 0kts
01-May-18 16:48 40.786341 -111.987060 29 4223ft 0kts
01-May-18 16:49 40.786341 -111.987060 29 4223ft 0kts
01-May-18 16:50 40.786341 -111.987060 29 4223ft 0kts
01-May-18 16:51 40.786341 -111.987060 29 4223ft 0kts
01-May-18 16:52 40.786341 -111.987060 29 4223ft 0kts
01-May-18 16:53 40.786341 -111.987060 29 4223ft 0kts
01-May-18 16:54 40.786341 -111.987060 29 4223ft 0kts
01-May-18 16:55 40.786018 -111.987301 29 4223ft 2kts
01-May-18 16:56 40.785496 -111.987692 29 4223ft 2kts
01-May-18 16:57 40.785166 -111.987723 327 4223ft 0kts
01-May-18 16:58 40.785166 -111.987723 327 4223ft 0kts
01-May-18 16:59 40.786231 -111.988349 341 4223ft 13kts
01-May-18 17:00 40.787206 -111.989765 263 4223ft 0kts
01-May-18 17:01 40.787206 -111.989766 263 4223ft 0kts
01-May-18 17:02 40.787116 -111.990891 264 4223ft 12kts
01-May-18 17:03 40.783291 -111.993283 174 4223ft 26kts
01-May-18 17:04 40.775987 -111.992505 178 4224ft 23kts
01-May-18 17:05 40.775264 -111.994016 267 4226ft 0kts
01-May-18 17:06 40.775244 -111.994457 265 4226ft 5kts
01-May-18 17:07 40.786062 -111.996759 354 4223ft 131kts
01-May-18 17:08 40.835959 -112.002027 354 5502ft 215kts
01-May-18 17:09 40.903034 -112.010100 354 7541ft 256kts
01-May-18 17:10 40.974941 -112.018927 359 10230ft 266kts
01-May-18 17:11 41.054563 -112.016414 1 12326ft 300kts
01-May-18 17:12 41.117662 -111.965848 45 14686ft 311kts
01-May-18 17:13 41.142039 -111.861473 97 17150ft 328kts
01-May-18 17:14 41.108418 -111.758950 147 19195ft 344kts
01-May-18 17:15 41.023664 -111.693477 150 20979ft 368kts
01-May-18 17:16 40.931377 -111.614536 128 21822ft 418kts
01-May-18 17:17 40.913187 -111.464708 91 23576ft 430kts
01-May-18 17:18 40.899099 -111.308829 98 24941ft 454kts
01-May-18 17:19 40.879137 -111.142530 99 26615ft 467kts
01-May-18 17:20 40.860165 -110.982644 106 29923ft 427kts
01-May-18 17:21 40.840525 -110.820840 106 30399ft 460kts
01-May-18 17:22 40.820400 -110.655476 106 30945ft 452kts
01-May-18 17:23 40.800287 -110.492914 106 30940ft 450kts
01-May-18 17:24 40.780039 -110.331181 107 30933ft 453kts
01-May-18 17:25 40.757948 -110.162067 107 30911ft 485kts
01-May-18 17:26 40.738265 -109.984405 101 30906ft 494kts
01-May-18 17:27 40.725998 -109.804136 102 30872ft 493kts
01-May-18 17:28 40.713219 -109.624774 102 30873ft 493kts
01-May-18 17:29 40.700224 -109.446119 102 30874ft 493kts
01-May-18 17:30 40.686985 -109.267621 102 30871ft 492kts
01-May-18 17:31 40.673285 -109.087343 102 30868ft 501kts
01-May-18 17:32 40.658955 -108.902437 102 30887ft 514kts
01-May-18 17:33 40.644244 -108.716364 102 30877ft 512kts
01-May-18 17:34 40.629171 -108.529829 102 30921ft 511kts
01-May-18 17:35 40.614180 -108.347989 103 30951ft 511kts
01-May-18 17:36 40.598725 -108.163595 103 30951ft 510kts
01-May-18 17:37 40.582870 -107.978538 103 30967ft 510kts
01-May-18 17:38 40.566862 -107.795184 103 30973ft 510kts
01-May-18 17:39 40.550582 -107.612161 103 30974ft 510kts
01-May-18 17:40 40.534050 -107.429590 103 30980ft 510kts
01-May-18 17:41 40.518044 -107.251942 102 30990ft 510kts
01-May-18 17:42 40.507651 -107.065988 100 30995ft 512kts
01-May-18 17:43 40.497672 -106.879833 99 29946ft 515kts
01-May-18 17:44 40.487384 -106.693366 99 28976ft 512kts
01-May-18 17:45 40.477028 -106.511469 98 28995ft 514kts
01-May-18 17:46 40.466437 -106.330380 100 28963ft 514kts
01-May-18 17:47 40.454461 -106.145656 99 27871ft 506kts
01-May-18 17:48 40.441547 -105.965482 106 26181ft 487kts
01-May-18 17:49 40.414637 -105.799085 105 24459ft 449kts
01-May-18 17:50 40.389966 -105.643595 105 22788ft 437kts
01-May-18 17:51 40.365812 -105.492534 104 21336ft 428kts
01-May-18 17:52 40.312001 -105.365436 134 19463ft 399kts
01-May-18 17:53 40.242816 -105.257570 133 17463ft 383kts
01-May-18 17:54 40.176625 -105.154112 133 16001ft 357kts
01-May-18 17:55 40.113800 -105.056028 134 15675ft 340kts
01-May-18 17:56 40.055422 -104.964997 133 14124ft 316kts
01-May-18 17:57 40.001820 -104.881777 132 14035ft 296kts
01-May-18 17:58 39.945735 -104.805465 163 12981ft 287kts
01-May-18 18:00 39.869241 -104.806368 181 12569ft 280kts
01-May-18 18:01 39.795916 -104.808728 180 11078ft 252kts
01-May-18 18:02 39.729817 -104.810559 179 10222ft 253kts
01-May-18 18:03 39.660526 -104.812395 178 8929ft 236kts
01-May-18 18:04 39.594722 -104.815756 180 8945ft 238kts
01-May-18 18:05 39.531196 -104.809043 134 8943ft 231kts
01-May-18 18:06 39.540192 -104.732577 67 8981ft 226kts
01-May-18 18:07 39.577730 -104.672485 18 8969ft 237kts
01-May-18 18:08 39.643425 -104.662002 2 8955ft 240kts
01-May-18 18:09 39.707260 -104.662163 3 7826ft 213kts
01-May-18 18:10 39.761134 -104.661457 4 6796ft 188kts
01-May-18 18:11 39.809826 -104.660736 5 5786ft 168kts
01-May-18 18:12 39.845296 -104.660119 0 5441ft 47kts
01-May-18 18:13 39.851346 -104.662292 2 5441ft 16kts
01-May-18 18:14 39.852735 -104.665926 264 5441ft 15kts
01-May-18 18:15 39.852762 -104.669613 282 5441ft 2kts
01-May-18 18:16 39.853405 -104.669847 359 5441ft 0kts

Navigation Log

Ident Type
Flight plan parsing failed, navigation log unavailable